Time;durP1;ratioP1;P1;durP2;ratioP2;P2;SDS_P1;SDS_P2;PMS_P1;PMS_P2;Temp;Humidity;BMP_temperature;BMP_pressure;BME280_temperature;BME280_humidity;BME280_pressure;Samples;Min_cycle;Max_cycle;Signal;HPM_P1;HPM_P2
2022/10/14 00:03:07;;;;;;;42.50;19.35;;;;;;;5.99;78.63;100927.15;1771171;81;21224;-77
2022/10/14 00:06:16;;;;;;;48.35;20.23;;;;;;;6.05;78.62;100925.25;1771073;81;21240;-77
2022/10/14 00:09:22;;;;;;;57.17;25.75;;;;;;;5.95;78.84;100927.05;1770235;80;21247;-77
2022/10/14 00:12:28;;;;;;;54.58;24.32;;;;;;;5.95;79.09;100936.05;1770967;81;21878;-77
2022/10/14 00:15:36;;;;;;;54.85;23.57;;;;;;;5.90;79.04;100933.69;1770827;81;21177;-77
2022/10/14 00:18:43;;;;;;;54.23;24.32;;;;;;;5.86;79.00;100936.30;1770416;81;21217;-77
2022/10/14 00:21:51;;;;;;;61.37;25.27;;;;;;;5.68;79.43;100939.22;1771644;81;21549;-77
2022/10/14 00:24:57;;;;;;;49.85;22.40;;;;;;;6.05;79.25;100934.76;1772095;81;21692;-77
2022/10/14 00:28:04;;;;;;;50.00;23.42;;;;;;;5.63;79.97;100931.95;1769612;81;21189;-77
2022/10/14 00:31:10;;;;;;;40.83;18.87;;;;;;;5.60;80.06;100933.09;1770947;81;21847;-77
2022/10/14 00:34:16;;;;;;;43.33;20.10;;;;;;;5.68;79.92;100932.92;1771143;81;21220;-77
2022/10/14 00:37:23;;;;;;;40.08;19.27;;;;;;;5.57;80.32;100928.41;1769783;81;21196;-77
2022/10/14 00:40:28;;;;;;;42.27;19.73;;;;;;;5.81;79.95;100928.19;1769453;81;21510;-77
2022/10/14 00:43:34;;;;;;;34.18;18.10;;;;;;;5.55;80.47;100930.38;1771148;81;21172;-78
2022/10/14 00:46:43;;;;;;;37.83;18.52;;;;;;;5.70;80.59;100929.61;1771071;81;21185;-77
2022/10/14 00:49:49;;;;;;;35.48;17.87;;;;;;;6.04;79.25;100928.97;1771028;81;21180;-77
2022/10/14 00:52:55;;;;;;;38.33;17.67;;;;;;;5.83;79.65;100925.72;1771955;81;21216;-78
2022/10/14 00:56:00;;;;;;;34.73;16.05;;;;;;;5.84;80.24;100922.01;1771067;81;21229;-77
2022/10/14 00:58:59;;;;;;;37.38;17.73;;;;;;;5.98;79.90;100924.93;1770499;81;21791;-77
2022/10/14 01:01:51;;;;;;;38.60;18.02;;;;;;;6.02;79.78;100928.22;1771065;81;21204;-77
2022/10/14 01:04:58;;;;;;;36.68;18.20;;;;;;;6.23;79.71;100922.30;1771097;81;21185;-77
2022/10/14 01:08:27;;;;;;;34.33;16.97;;;;;;;6.36;78.83;100915.31;1770558;81;21256;-76
2022/10/14 01:11:46;;;;;;;42.27;19.02;;;;;;;6.03;79.54;100918.61;1771053;81;21232;-77
2022/10/14 01:15:17;;;;;;;38.28;16.15;;;;;;;6.12;79.76;100926.46;1768938;81;21189;-77
2022/10/14 01:18:45;;;;;;;32.93;16.52;;;;;;;6.25;78.84;100920.30;1771115;81;21735;-77
2022/10/14 01:21:55;;;;;;;37.90;16.25;;;;;;;6.40;78.86;100924.42;1771040;81;21169;-77
2022/10/14 01:25:28;;;;;;;30.43;15.35;;;;;;;5.99;80.27;100919.00;1771198;81;21188;-77
2022/10/14 01:28:36;;;;;;;45.28;15.00;;;;;;;5.92;80.85;100921.86;1769767;81;21926;-76
2022/10/14 01:31:42;;;;;;;39.27;16.60;;;;;;;5.99;80.94;100919.86;1751095;81;21208;-77
2022/10/14 01:35:10;;;;;;;35.63;14.95;;;;;;;6.19;80.71;100921.34;1770820;81;21181;-77
2022/10/14 01:38:20;;;;;;;31.17;15.55;;;;;;;6.08;80.88;100922.28;1771066;81;21188;-77
2022/10/14 01:41:32;;;;;;;35.05;14.38;;;;;;;6.04;81.49;100921.67;1770921;81;21173;-77
2022/10/14 01:44:38;;;;;;;36.13;16.20;;;;;;;6.23;80.90;100918.23;1769835;81;21337;-78
2022/10/14 01:47:44;;;;;;;32.53;14.95;;;;;;;6.55;80.45;100923.56;1771000;81;21185;-77
2022/10/14 01:50:54;;;;;;;46.05;15.88;;;;;;;6.18;81.21;100923.20;1769462;81;21161;-77
2022/10/14 01:54:05;;;;;;;32.50;14.07;;;;;;;6.15;81.66;100918.88;1770575;81;21200;-76
2022/10/14 01:57:14;;;;;;;25.12;13.43;;;;;;;6.21;81.70;100921.59;1771093;81;21729;-77
2022/10/14 02:00:21;;;;;;;38.10;14.35;;;;;;;6.48;81.06;100919.65;1770461;81;21228;-77
2022/10/14 02:03:28;;;;;;;32.42;14.73;;;;;;;6.64;80.87;100923.25;1769684;81;21735;-77
2022/10/14 02:06:39;;;;;;;27.00;13.28;;;;;;;6.91;79.81;100925.34;1770904;81;21307;-78
2022/10/14 02:10:10;;;;;;;38.75;13.53;;;;;;;6.75;80.37;100920.92;1770515;80;21193;-77
2022/10/14 02:13:46;;;;;;;28.45;14.15;;;;;;;6.48;81.47;100920.15;1770886;81;21157;-77
2022/10/14 02:17:00;;;;;;;31.93;14.15;;;;;;;6.61;81.64;100919.44;1771272;81;21169;-77
2022/10/14 02:20:32;;;;;;;29.27;14.18;;;;;;;6.70;81.20;100924.05;1770946;81;21196;-77
2022/10/14 02:23:40;;;;;;;31.55;14.00;;;;;;;6.95;80.69;100924.57;1770786;81;21362;-77
2022/10/14 02:26:46;;;;;;;30.50;13.53;;;;;;;6.97;80.67;100925.31;1755021;81;21735;-77
2022/10/14 02:29:53;;;;;;;27.95;13.30;;;;;;;6.98;80.66;100926.53;1771237;81;21558;-77
2022/10/14 02:33:00;;;;;;;23.57;12.95;;;;;;;6.97;80.77;100925.31;1769686;81;21264;-77
2022/10/14 02:36:06;;;;;;;34.48;14.23;;;;;;;7.12;80.43;100923.42;1771137;81;21224;-77
2022/10/14 02:39:12;;;;;;;36.17;13.78;;;;;;;7.24;80.20;100921.42;1770683;81;21255;-78
2022/10/14 02:42:17;;;;;;;26.42;13.25;;;;;;;7.21;80.42;100921.73;1771176;81;21172;-77
2022/10/14 02:45:22;;;;;;;27.22;13.03;;;;;;;7.26;80.28;100919.95;1771022;81;21176;-77
2022/10/14 02:48:29;;;;;;;27.48;12.25;;;;;;;7.19;80.76;100922.34;1770941;81;21160;-77
2022/10/14 02:51:36;;;;;;;25.90;13.53;;;;;;;7.42;80.34;100921.10;1769606;81;21174;-78
2022/10/14 02:54:42;;;;;;;28.55;13.90;;;;;;;7.45;80.35;100919.12;1769787;81;21256;-77
2022/10/14 02:57:50;;;;;;;29.98;13.62;;;;;;;7.42;80.20;100921.61;1768370;81;21201;-77
2022/10/14 03:00:56;;;;;;;34.88;12.65;;;;;;;7.50;80.28;100924.49;1769596;81;21420;-77
2022/10/14 03:03:58;;;;;;;29.30;14.15;;;;;;;7.75;79.53;100926.29;1770835;81;21181;-76
2022/10/14 03:07:02;;;;;;;27.15;12.63;;;;;;;7.88;78.89;100916.83;1770901;81;21716;-77
2022/10/14 03:10:11;;;;;;;27.48;13.60;;;;;;;7.72;78.84;100918.43;1770426;80;21747;-77
2022/10/14 03:13:18;;;;;;;32.78;13.88;;;;;;;7.71;79.67;100919.41;1771641;81;21469;-77
2022/10/14 03:16:24;;;;;;;34.63;15.68;;;;;;;7.64;80.04;100921.86;1769423;81;21227;-77
2022/10/14 03:19:28;;;;;;;29.30;13.95;;;;;;;7.54;80.40;100918.27;1771033;81;21177;-77
2022/10/14 03:22:36;;;;;;;24.18;12.47;;;;;;;7.57;80.48;100919.33;1770821;81;21184;-77
2022/10/14 03:25:43;;;;;;;39.48;13.85;;;;;;;7.58;80.54;100919.20;1770172;81;21209;-77
2022/10/14 03:28:50;;;;;;;30.32;14.78;;;;;;;7.55;80.42;100920.84;1770950;81;21193;-77
2022/10/14 03:31:59;;;;;;;;;;;;;;;7.49;81.09;100919.20;1770121;81;21240;-77
2022/10/14 03:35:24;;;;;;;31.42;15.08;;;;;;;7.57;81.00;100920.18;1770799;81;20675;-77
2022/10/14 03:38:32;;;;;;;39.23;15.05;;;;;;;7.70;80.54;100917.19;1770966;81;21177;-77
2022/10/14 03:41:47;;;;;;;34.10;14.65;;;;;;;7.49;80.73;100913.25;1761474;81;21221;-77
2022/10/14 03:44:55;;;;;;;27.30;14.65;;;;;;;7.58;80.28;100912.41;1770995;81;21228;-77
2022/10/14 03:48:03;;;;;;;32.70;14.60;;;;;;;7.68;79.80;100915.13;1771161;81;21330;-77
2022/10/14 03:51:10;;;;;;;30.37;14.58;;;;;;;7.70;79.40;100917.19;1770765;81;21782;-77
2022/10/14 03:54:18;;;;;;;27.48;14.50;;;;;;;7.42;79.77;100912.94;1771286;81;21177;-77
2022/10/14 03:57:23;;;;;;;30.90;13.90;;;;;;;7.34;79.92;100914.17;1770208;81;21192;-77
2022/10/14 04:00:30;;;;;;;33.58;14.68;;;;;;;7.24;80.79;100918.70;1769489;81;21164;-77
2022/10/14 04:03:40;;;;;;;31.42;15.40;;;;;;;7.05;81.69;100913.22;1770825;81;21218;-77
2022/10/14 04:06:50;;;;;;;32.03;15.32;;;;;;;7.19;81.72;100916.91;1770730;81;21220;-77
2022/10/14 04:09:56;;;;;;;28.57;16.70;;;;;;;7.49;81.50;100915.97;1770060;80;21243;-77
2022/10/14 04:13:02;;;;;;;30.02;15.32;;;;;;;7.69;79.88;100920.92;1769518;81;21485;-77
2022/10/14 04:16:14;;;;;;;36.28;17.48;;;;;;;7.43;81.21;100917.88;1769574;81;21176;-77
2022/10/14 04:19:22;;;;;;;35.75;16.82;;;;;;;7.74;80.10;100917.27;1770854;81;21228;-77
2022/10/14 04:22:29;;;;;;;35.00;15.53;;;;;;;7.71;80.07;100913.96;1770190;81;21188;-77
2022/10/14 04:25:38;;;;;;;40.10;16.12;;;;;;;7.74;80.17;100907.73;1769944;81;21759;-77
2022/10/14 04:28:45;;;;;;;32.95;16.20;;;;;;;7.51;81.05;100915.82;1770390;81;21232;-77
2022/10/14 04:31:55;;;;;;;32.35;14.23;;;;;;;7.81;80.82;100917.53;1769587;81;21204;-77
2022/10/14 04:35:01;;;;;;;30.70;13.85;;;;;;;7.73;80.84;100917.42;1770395;81;21200;-77
2022/10/14 04:38:08;;;;;;;31.33;15.20;;;;;;;7.85;81.11;100917.61;1769724;81;21565;-77
2022/10/14 04:41:19;;;;;;;32.58;16.05;;;;;;;7.83;81.29;100916.41;1770802;81;21193;-77
2022/10/14 04:44:24;;;;;;;27.20;14.85;;;;;;;7.78;81.39;100918.70;1771149;81;21224;-76
2022/10/14 04:47:31;;;;;;;38.53;15.85;;;;;;;7.72;82.17;100922.01;1770966;81;21755;-77
2022/10/14 04:50:37;;;;;;;35.40;15.10;;;;;;;7.88;81.70;100922.28;1771067;81;21725;-77
2022/10/14 04:53:46;;;;;;;29.27;13.75;;;;;;;7.97;81.58;100923.78;1769510;81;21184;-77
2022/10/14 04:56:55;;;;;;;30.25;15.15;;;;;;;8.14;81.05;100925.28;1770568;81;21260;-77
2022/10/14 05:00:02;;;;;;;34.63;14.63;;;;;;;8.12;81.07;100927.27;1777765;80;21191;-77
2022/10/14 05:03:18;;;;;;;31.20;15.63;;;;;;;8.19;81.23;100931.66;1778085;80;21331;-76
2022/10/14 05:06:24;;;;;;;28.25;13.90;;;;;;;8.21;81.67;100925.55;1778042;80;21176;-77
2022/10/14 05:09:32;;;;;;;33.83;14.78;;;;;;;8.28;81.83;100929.42;1779096;80;21220;-77
2022/10/14 05:12:46;;;;;;;39.58;15.48;;;;;;;8.04;82.40;100928.49;1778227;80;21255;-77
2022/10/14 05:15:55;;;;;;;30.97;15.57;;;;;;;8.21;82.34;100935.08;1779781;80;21176;-77
2022/10/14 05:19:02;;;;;;;40.23;16.70;;;;;;;8.10;82.93;100936.11;1774026;80;21766;-78
2022/10/14 05:22:10;;;;;;;49.10;17.45;;;;;;;8.18;83.03;100929.91;1748204;81;21227;-78
2022/10/14 05:25:16;;;;;;;34.85;17.90;;;;;;;8.37;82.47;100941.31;1756345;79;21874;-78
2022/10/14 05:28:22;;;;;;;38.75;17.30;;;;;;;8.46;81.98;100943.16;1751417;81;21255;-78
2022/10/14 05:31:28;;;;;;;45.45;19.52;;;;;;;8.62;81.48;100938.47;1776183;81;21200;-77
2022/10/14 05:34:34;;;;;;;41.25;18.37;;;;;;;9.19;79.52;100946.05;1774058;81;21203;-77
2022/10/14 05:37:56;;;;;;;33.40;17.35;;;;;;;9.17;78.99;100949.42;1776392;81;21180;-77
2022/10/14 05:41:04;;;;;;;38.53;18.00;;;;;;;9.27;78.46;100957.08;1774848;81;21723;-77
2022/10/14 05:44:11;;;;;;;38.30;17.95;;;;;;;9.53;77.79;100954.97;1772839;81;21208;-78
2022/10/14 05:47:18;;;;;;;44.65;19.62;;;;;;;9.39;78.09;100954.47;1739681;82;21161;-77
2022/10/14 05:50:26;;;;;;;50.60;20.45;;;;;;;9.47;77.82;100964.64;1738401;82;21778;-77
2022/10/14 05:53:38;;;;;;;46.20;18.35;;;;;;;9.49;78.05;100963.97;1771588;81;21200;-77
2022/10/14 05:56:45;;;;;;;49.77;21.07;;;;;;;9.52;78.17;100959.58;1769021;80;21174;-77
2022/10/14 05:59:51;;;;;;;47.23;21.97;;;;;;;9.40;78.62;100963.01;1754663;80;21204;-77
2022/10/14 06:02:58;;;;;;;44.90;20.37;;;;;;;9.14;80.32;100960.15;1763455;81;21335;-77
2022/10/14 06:06:05;;;;;;;57.85;20.57;;;;;;;9.08;81.04;100963.97;1763802;81;21193;-78
2022/10/14 06:09:11;;;;;;;49.60;21.82;;;;;;;9.50;80.38;100964.82;1762837;80;21218;-77
2022/10/14 06:12:18;;;;;;;64.45;23.75;;;;;;;9.55;80.38;100966.11;1777634;80;21189;-78
2022/10/14 06:15:24;;;;;;;47.27;19.90;;;;;;;9.86;79.36;100960.26;1775882;79;21181;-78
2022/10/14 06:18:30;;;;;;;44.53;19.98;;;;;;;9.96;78.93;100963.26;1795624;79;21211;-78
2022/10/14 06:21:36;;;;;;;46.68;18.70;;;;;;;9.74;79.52;100961.02;1809679;79;21164;-78
2022/10/14 06:24:36;;;;;;;36.88;16.60;;;;;;;9.76;79.28;100960.84;1784552;79;21751;-79
2022/10/14 06:27:43;;;;;;;34.13;16.32;;;;;;;9.66;79.47;100971.33;1784915;79;21169;-79
2022/10/14 06:30:59;;;;;;;32.58;17.73;;;;;;;9.85;79.43;100967.60;1785693;80;21164;-78
2022/10/14 06:34:06;;;;;;;44.48;19.60;;;;;;;10.42;77.68;100970.86;1781790;79;21185;-79
2022/10/14 06:37:21;;;;;;;35.30;16.67;;;;;;;10.40;77.56;100963.86;1849003;76;22211;-77
2022/10/14 06:40:27;;;;;;;32.53;17.17;;;;;;;10.29;77.57;100963.58;1773603;80;21129;-78
2022/10/14 06:43:34;;;;;;;40.05;17.37;;;;;;;10.57;76.22;100975.23;1765891;80;21287;-78
2022/10/14 06:46:40;;;;;;;30.72;15.70;;;;;;;10.63;76.33;100964.16;1749010;80;21204;-77
2022/10/14 06:49:47;;;;;;;32.83;14.55;;;;;;;10.80;75.70;100965.99;1772478;80;21750;-77
2022/10/14 06:52:55;;;;;;;34.27;15.25;;;;;;;10.85;75.43;100969.61;1775409;78;21233;-77
2022/10/14 06:56:11;;;;;;;39.53;16.77;;;;;;;10.72;75.61;100971.41;1773390;80;21188;-77
2022/10/14 06:59:19;;;;;;;29.60;14.43;;;;;;;10.84;75.72;100963.80;1751276;82;21292;-78
2022/10/14 07:02:25;;;;;;;28.50;14.35;;;;;;;11.03;75.40;100960.81;1768782;80;21153;-77
2022/10/14 07:05:30;;;;;;;29.55;13.88;;;;;;;11.23;74.85;100963.64;1761180;80;21181;-78
2022/10/14 07:08:38;;;;;;;37.40;14.65;;;;;;;11.38;74.14;100962.49;1754495;81;22562;-78
2022/10/14 07:11:44;;;;;;;37.45;13.55;;;;;;;11.37;73.54;100964.89;1741618;81;21287;-78
2022/10/14 07:14:51;;;;;;;38.35;15.90;;;;;;;11.13;74.71;100964.80;1744786;81;21264;-78
2022/10/14 07:17:57;;;;;;;32.05;13.98;;;;;;;11.49;73.76;100969.57;1746849;81;21294;-78
2022/10/14 07:21:07;;;;;;;34.00;15.18;;;;;;;11.69;72.97;100970.98;1745535;81;21174;-78
2022/10/14 07:24:14;;;;;;;24.40;13.00;;;;;;;11.86;72.52;100967.81;1749621;81;21176;-78
2022/10/14 07:27:14;;;;;;;33.98;13.60;;;;;;;11.92;72.46;100967.12;1741039;81;21181;-78
2022/10/14 07:30:08;;;;;;;28.27;12.90;;;;;;;11.77;72.87;100972.91;1743704;81;21180;-78
2022/10/14 07:32:56;;;;;;;24.98;11.55;;;;;;;11.87;72.71;100970.04;1748737;81;21814;-78
2022/10/14 07:36:03;;;;;;;23.73;10.93;;;;;;;12.07;71.13;100968.69;1747976;81;21517;-77
2022/10/14 07:39:09;;;;;;;18.35;9.13;;;;;;;12.27;69.84;100965.09;1706767;83;21295;-78
2022/10/14 07:42:15;;;;;;;21.90;10.30;;;;;;;12.55;68.27;100969.70;1726225;82;21197;-77
2022/10/14 07:45:22;;;;;;;19.17;9.18;;;;;;;12.37;67.61;100965.77;1704880;83;21192;-78
2022/10/14 07:48:28;;;;;;;21.93;9.18;;;;;;;12.87;65.64;100963.30;1737598;81;21187;-77
2022/10/14 07:51:36;;;;;;;14.35;8.18;;;;;;;12.79;64.87;100959.20;1743434;81;22443;-78
2022/10/14 07:54:41;;;;;;;20.45;9.05;;;;;;;12.93;63.83;100962.59;1709272;82;21820;-78
2022/10/14 07:57:50;;;;;;;17.85;8.48;;;;;;;12.89;63.39;100969.50;1703310;84;21516;-78
2022/10/14 08:00:58;;;;;;;19.52;8.15;;;;;;;12.95;63.17;100963.29;1725095;81;21223;-78
2022/10/14 08:04:04;;;;;;;20.27;9.23;;;;;;;13.10;61.79;100966.67;1724289;81;21204;-77
2022/10/14 08:07:15;;;;;;;21.85;8.00;;;;;;;13.24;60.75;100963.22;1723015;81;21790;-78
2022/10/14 08:10:23;;;;;;;21.12;9.20;;;;;;;13.34;60.84;100964.38;1724036;81;21247;-79
2022/10/14 08:13:35;;;;;;;16.00;8.63;;;;;;;13.42;60.09;100962.45;1715965;81;21302;-78
2022/10/14 08:16:44;;;;;;;20.15;9.10;;;;;;;13.45;59.21;100966.72;1718527;82;21190;-78
2022/10/14 08:19:49;;;;;;;17.75;9.15;;;;;;;13.59;57.89;100965.11;1716190;83;21751;-77
2022/10/14 08:22:55;;;;;;;20.82;9.20;;;;;;;13.80;57.56;100965.34;1714529;83;21873;-76
2022/10/14 08:26:00;;;;;;;20.85;9.48;;;;;;;13.76;58.02;100962.61;1711381;83;21212;-77
2022/10/14 08:29:07;;;;;;;22.20;9.35;;;;;;;13.93;57.78;100958.73;1720264;81;22443;-77
2022/10/14 08:32:15;;;;;;;20.37;9.73;;;;;;;14.19;56.87;100954.22;1736155;81;21196;-77
2022/10/14 08:35:22;;;;;;;15.50;7.60;;;;;;;14.30;56.17;100951.54;1718382;81;21185;-79
2022/10/14 08:38:28;;;;;;;22.93;7.67;;;;;;;14.38;55.76;100950.11;1717162;82;22209;-78
2022/10/14 08:41:46;;;;;;;19.52;8.40;;;;;;;14.55;53.78;100950.33;1738562;82;21197;-78
2022/10/14 08:45:11;;;;;;;14.45;7.42;;;;;;;14.69;53.79;100949.17;1735047;82;21186;-79
2022/10/14 08:48:27;;;;;;;16.45;8.15;;;;;;;14.54;54.19;100948.63;1734139;82;21728;-79
2022/10/14 08:51:36;;;;;;;15.68;7.65;;;;;;;14.60;54.21;100952.52;1741341;81;21326;-77
2022/10/14 08:54:55;;;;;;;16.40;6.85;;;;;;;14.74;53.93;100948.08;1737309;81;21169;-77
2022/10/14 08:58:07;;;;;;;14.23;7.03;;;;;;;14.85;52.51;100942.63;1737690;82;22472;-78
2022/10/14 09:01:40;;;;;;;14.70;6.80;;;;;;;14.86;51.58;100942.95;1734628;81;21224;-78
2022/10/14 09:04:46;;;;;;;17.02;7.05;;;;;;;14.91;51.22;100938.58;1736812;82;21208;-78
2022/10/14 09:07:52;;;;;;;18.50;5.72;;;;;;;15.18;49.22;100945.33;1736160;82;21237;-77
2022/10/14 09:10:57;;;;;;;12.82;5.78;;;;;;;15.14;48.74;100940.39;1732096;81;21804;-77
2022/10/14 09:14:05;;;;;;;11.78;5.47;;;;;;;15.36;48.51;100946.31;1741683;81;21731;-77
2022/10/14 09:17:11;;;;;;;14.30;5.08;;;;;;;15.29;49.02;100937.97;1735550;81;21192;-78
2022/10/14 09:20:29;;;;;;;10.30;4.15;;;;;;;15.11;48.34;100947.68;1739534;81;21539;-78
2022/10/14 09:23:39;;;;;;;9.18;4.50;;;;;;;15.06;48.03;100945.50;1734536;81;21236;-79
2022/10/14 09:26:47;;;;;;;12.10;4.78;;;;;;;14.98;46.67;100942.83;1743540;82;21232;-78
2022/10/14 09:30:11;;;;;;;12.85;4.42;;;;;;;14.88;47.11;100938.13;1725253;82;22378;-78
2022/10/14 09:33:21;;;;;;;8.55;3.67;;;;;;;14.94;47.16;100937.36;1736144;81;21187;-78
2022/10/14 09:36:27;;;;;;;13.85;4.05;;;;;;;14.96;46.78;100939.39;1745781;82;21212;-78
2022/10/14 09:39:33;;;;;;;12.85;4.10;;;;;;;14.96;46.29;100933.39;1724240;82;21255;-77
2022/10/14 09:43:17;;;;;;;9.05;3.62;;;;;;;14.93;46.04;100940.64;1733360;81;21205;-78
2022/10/14 09:46:24;;;;;;;6.72;3.83;;;;;;;14.85;46.06;100937.97;1709919;82;21804;-77
2022/10/14 09:49:40;;;;;;;8.18;3.42;;;;;;;14.64;46.02;100938.72;1681598;82;21213;-78
2022/10/14 09:52:46;;;;;;;8.08;3.15;;;;;;;14.73;45.70;100940.34;1749583;81;21529;-77
2022/10/14 09:55:56;;;;;;;5.47;2.60;;;;;;;14.76;45.00;100934.97;1747580;81;21190;-78
2022/10/14 09:58:56;;;;;;;6.75;3.42;;;;;;;14.77;45.57;100932.54;1763676;79;21906;-77
2022/10/14 10:01:56;;;;;;;12.13;3.05;;;;;;;14.83;45.69;100929.91;1727650;81;21264;-78
2022/10/14 10:04:47;;;;;;;5.97;2.85;;;;;;;14.63;44.97;100936.13;1709665;81;21220;-78
2022/10/14 10:07:40;;;;;;;4.92;2.30;;;;;;;14.73;44.91;100936.22;1739820;80;21200;-76
2022/10/14 10:10:33;;;;;;;5.03;2.15;;;;;;;14.77;44.03;100938.05;1724058;82;21220;-77
2022/10/14 10:13:31;;;;;;;8.05;2.50;;;;;;;14.69;44.13;100938.16;1727538;82;21220;-78
2022/10/14 10:16:37;;;;;;;11.28;3.12;;;;;;;14.77;43.79;100936.18;1759909;79;21204;-78
2022/10/14 10:19:45;;;;;;;8.95;2.98;;;;;;;14.69;44.47;100932.66;1734362;82;21240;-78
2022/10/14 10:22:48;;;;;;;4.37;2.33;;;;;;;14.72;44.23;100935.00;1744043;82;21264;-78
2022/10/14 10:25:54;;;;;;;12.30;2.90;;;;;;;14.76;43.00;100930.31;1744053;82;21211;-78
2022/10/14 10:29:02;;;;;;;7.87;2.77;;;;;;;14.60;43.26;100922.23;1740635;81;21854;-77
2022/10/14 10:32:18;;;;;;;5.25;2.27;;;;;;;14.56;44.23;100923.12;1743755;81;22103;-78
2022/10/14 10:35:35;;;;;;;10.35;3.10;;;;;;;14.69;44.61;100918.88;1731998;81;21681;-78
2022/10/14 10:39:13;;;;;;;4.92;2.50;;;;;;;14.91;43.46;100920.67;1707582;81;21236;-77
2022/10/14 10:42:39;;;;;;;5.80;2.37;;;;;;;14.78;43.78;100918.61;1716087;81;21248;-78
2022/10/14 10:45:59;;;;;;;6.00;2.50;;;;;;;14.72;43.63;100915.73;1687370;83;21232;-79
2022/10/14 10:49:19;;;;;;;8.75;2.80;;;;;;;14.71;44.19;100909.90;1717060;81;21185;-79
2022/10/14 10:53:00;;;;;;;6.35;2.65;;;;;;;14.75;44.76;100916.74;1700493;82;21775;-78
2022/10/14 10:56:37;;;;;;;8.10;2.42;;;;;;;14.71;44.06;100909.90;1731110;82;21208;-77
2022/10/14 10:59:57;;;;;;;7.22;2.33;;;;;;;14.76;43.56;100916.55;1721869;82;21275;-77
2022/10/14 11:03:06;;;;;;;8.03;2.45;;;;;;;14.79;43.99;100914.80;1715888;81;21779;-77
2022/10/14 11:13:55;;;;;;;6.17;2.77;;;;;;;15.01;42.51;100906.64;1702728;83;21177;-77
2022/10/14 11:17:09;;;;;;;9.03;2.60;;;;;;;15.09;42.45;100907.38;1696859;83;21164;-76
2022/10/14 11:20:25;;;;;;;10.53;3.00;;;;;;;15.16;42.43;100900.59;1686879;83;21228;-77
2022/10/14 11:24:00;;;;;;;5.95;2.70;;;;;;;14.94;42.75;100903.78;1707360;82;21692;-77
2022/10/14 11:27:23;;;;;;;6.33;2.58;;;;;;;14.70;42.56;100902.16;1702754;84;21189;-76
2022/10/14 11:30:51;;;;;;;8.85;1.92;;;;;;;14.62;42.76;100889.00;1691068;83;21217;-76
2022/10/14 11:34:11;;;;;;;4.40;1.85;;;;;;;14.54;42.48;100899.08;1695178;83;21218;-76
2022/10/14 11:37:42;;;;;;;4.45;1.95;;;;;;;14.45;42.88;100897.94;1694160;84;21181;-77
2022/10/14 11:41:21;;;;;;;4.78;2.20;;;;;;;14.42;43.35;100895.55;1701677;83;21239;-76
2022/10/14 11:44:44;;;;;;;5.40;2.17;;;;;;;14.50;43.33;100895.51;1720273;83;21249;-76
2022/10/14 11:47:51;;;;;;;4.85;2.20;;;;;;;14.46;43.34;100894.98;1719013;82;21186;-77
2022/10/14 11:50:59;;;;;;;5.72;1.92;;;;;;;14.62;43.32;100887.10;1706105;81;22281;-79
2022/10/14 11:54:34;;;;;;;6.53;2.27;;;;;;;14.73;43.13;100889.94;1726609;81;21224;-78
2022/10/14 11:57:44;;;;;;;21.27;2.75;;;;;;;14.77;42.75;100888.48;1715545;83;21203;-78
2022/10/14 12:01:14;;;;;;;4.72;1.82;;;;;;;14.83;42.07;100890.50;1711067;83;21205;-76
2022/10/14 12:04:35;;;;;;;5.17;2.00;;;;;;;14.88;41.35;100888.03;1705409;83;21177;-78
2022/10/14 12:08:08;;;;;;;5.37;1.80;;;;;;;15.09;41.10;100881.20;1718282;83;21839;-79
2022/10/14 12:11:43;;;;;;;7.17;2.17;;;;;;;15.08;41.06;100883.63;1723695;83;21239;-78
2022/10/14 12:14:55;;;;;;;4.05;1.65;;;;;;;15.13;40.88;100889.09;1720141;83;21256;-79
2022/10/14 12:18:07;;;;;;;4.17;1.75;;;;;;;15.32;40.42;100878.31;1722046;83;22392;-78
2022/10/14 12:21:32;;;;;;;4.37;1.70;;;;;;;15.36;40.14;100882.92;1704019;83;21832;-78
2022/10/14 12:24:47;;;;;;;9.60;2.35;;;;;;;15.34;39.87;100885.88;1703556;83;21236;-79
2022/10/14 12:27:54;;;;;;;8.13;2.17;;;;;;;15.48;40.15;100882.76;1702160;84;21211;-78
2022/10/14 12:30:59;;;;;;;4.50;1.47;;;;;;;15.48;40.39;100886.02;1700870;84;21234;-78
2022/10/14 12:34:23;;;;;;;7.53;1.90;;;;;;;15.39;40.51;100881.69;1707975;83;21209;-77
2022/10/14 12:37:44;;;;;;;4.40;1.90;;;;;;;15.49;40.42;100881.70;1730977;83;21249;-78
2022/10/14 12:40:51;;;;;;;5.20;2.00;;;;;;;15.44;40.20;100881.96;1703365;83;21238;-78
2022/10/14 12:44:09;;;;;;;4.03;2.37;;;;;;;15.14;41.18;100883.91;1743183;82;21244;-78
2022/10/14 12:47:34;;;;;;;12.03;2.00;;;;;;;15.13;41.19;100874.78;1745307;82;21196;-78
2022/10/14 12:50:46;;;;;;;5.75;1.70;;;;;;;15.20;40.87;100876.27;1755831;81;21221;-78
2022/10/14 12:54:20;;;;;;;3.77;1.70;;;;;;;15.13;40.57;100877.55;1702908;83;21218;-78
2022/10/14 12:57:33;;;;;;;7.85;1.70;;;;;;;15.14;40.55;100881.15;1693967;83;21217;-78
2022/10/14 13:00:45;;;;;;;4.78;1.70;;;;;;;15.08;40.76;100876.74;1709994;83;21252;-79
2022/10/14 13:04:01;;;;;;;4.30;1.80;;;;;;;15.20;40.22;100874.89;1738531;81;21203;-78
2022/10/14 13:07:35;;;;;;;12.68;2.00;;;;;;;15.05;40.17;100878.49;1737402;81;21197;-78
2022/10/14 13:10:49;;;;;;;9.83;2.42;;;;;;;15.12;39.89;100876.37;1741249;81;21778;-78
2022/10/14 13:13:55;;;;;;;9.48;2.30;;;;;;;15.20;40.55;100879.02;1745893;81;21189;-78
2022/10/14 13:17:04;;;;;;;12.70;2.42;;;;;;;15.28;40.70;100873.38;1749344;81;21213;-78
2022/10/14 13:20:11;;;;;;;4.35;1.90;;;;;;;15.24;41.01;100874.81;1747266;81;21305;-78
2022/10/14 13:23:40;;;;;;;3.90;2.05;;;;;;;15.18;40.58;100876.44;1722078;81;21213;-78
2022/10/14 13:27:05;;;;;;;5.30;2.00;;;;;;;15.04;40.36;100876.79;1748443;82;21193;-78
2022/10/14 13:30:24;;;;;;;6.78;1.92;;;;;;;14.85;40.98;100879.28;1748249;81;21197;-78
2022/10/14 13:33:51;;;;;;;4.75;2.22;;;;;;;14.78;41.10;100877.83;1758485;81;21229;-78
2022/10/14 13:37:30;;;;;;;7.47;2.90;;;;;;;14.75;41.77;100876.29;1759005;81;21198;-78
2022/10/14 13:40:44;;;;;;;;;;;;;;;14.71;41.92;100881.84;1732055;82;21250;-78
2022/10/14 13:43:51;;;;;;;86.55;45.12;;;;;;;14.73;41.56;100878.39;1715142;82;20263;-78
2022/10/14 13:46:57;;;;;;;24.52;13.70;;;;;;;14.63;41.57;100881.92;1723083;83;21300;-78
2022/10/14 13:50:03;;;;;;;26.00;10.78;;;;;;;14.48;41.86;100875.03;1732840;83;21174;-78
2022/10/14 13:53:13;;;;;;;12.82;4.05;;;;;;;14.34;42.49;100879.96;1732940;83;21193;-78
2022/10/14 13:56:25;;;;;;;10.68;3.37;;;;;;;14.44;42.52;100886.05;1734172;83;21197;-78
2022/10/14 13:59:31;;;;;;;3.83;2.22;;;;;;;14.54;42.68;100882.56;1733008;83;21507;-78
2022/10/14 14:02:40;;;;;;;4.17;2.25;;;;;;;14.33;43.37;100889.27;1731117;83;21253;-81
2022/10/14 14:05:49;;;;;;;8.13;2.75;;;;;;;14.34;44.00;100889.59;1733330;83;21201;-81
2022/10/14 14:09:04;;;;;;;10.88;3.40;;;;;;;14.35;44.84;100895.45;1733434;83;21654;-78
2022/10/14 14:12:11;;;;;;;6.70;2.90;;;;;;;14.28;45.65;100890.34;1729818;83;21197;-78
2022/10/14 14:15:31;;;;;;;5.83;3.02;;;;;;;14.10;46.70;100892.58;1678933;85;21172;-78
2022/10/14 14:18:43;;;;;;;17.77;3.15;;;;;;;14.09;46.88;100893.63;1706937;84;21296;-78
2022/10/14 14:21:49;;;;;;;17.07;3.20;;;;;;;14.00;47.31;100889.56;1732644;83;21771;-78
2022/10/14 14:24:55;;;;;;;10.72;2.72;;;;;;;14.00;47.34;100894.20;1725526;83;21256;-79
2022/10/14 14:28:10;;;;;;;11.73;2.92;;;;;;;14.05;47.46;100891.23;1733027;83;21182;-79
2022/10/14 14:31:20;;;;;;;12.15;3.37;;;;;;;13.78;48.08;100888.55;1725374;83;21212;-79
2022/10/14 14:34:28;;;;;;;12.82;3.15;;;;;;;13.88;48.17;100886.05;1728822;83;21213;-78
2022/10/14 14:37:37;;;;;;;13.88;3.72;;;;;;;13.75;48.45;100886.16;1721392;83;21510;-78
2022/10/14 14:40:45;;;;;;;14.30;4.22;;;;;;;13.71;48.57;100889.45;1719987;83;21220;-79
2022/10/14 14:43:51;;;;;;;10.75;3.60;;;;;;;13.77;48.44;100899.70;1724434;81;21241;-78
2022/10/14 14:47:03;;;;;;;8.23;3.60;;;;;;;13.68;48.65;100887.05;1746339;82;21191;-78
2022/10/14 14:50:10;;;;;;;10.08;3.70;;;;;;;13.67;48.53;100882.61;1728337;83;21194;-78